Thida, Arkansas
Current Conditions -  °F | °C
As of 4:35 PM on Monday 26 Jan 2015 (Local Time) from KBVX Reporting Station
Clear Clear  
Wind Chill: 55°   Ceiling: Unl
Heat Index: 55°   Visibility: 10mi
Dew Point: 30°   Wind: 13mph
Humidity: 38%   Direction: 230°SW
Pressure: 29.92"   Gusts: 20mph
Location:  35.57°N, 91.48°W
Report Text: KBVX 262235Z AUTO 23011G17KT 10SM CLR 13/M01 A2992 RMK AO1
Loading
Personal Weather Stations






























Interactive Weather Map New forecast layout! Learn more

10-Day Weather Forecast

Advertisements
Track Severe Weather on mobile